SBOSBO BLL / EKBI
Speedbird OnlineSpeedbird Online BLL / EKBI

Billund Airport
16:24 8°C

Location Billund, Denmark
Latitude: 55.7402992249
Longitude: 9.15178012848
Local Time 16:24 on 17 Apr 2024
UTC +2 hours (Europe/Copenhagen)
Currency £1 equals DKK 8.74
METAR EKBI 171350Z 21001KT 9999 FEW045CB BKN073 08/03 Q1009
TAF TAF EKBI 171108Z 1712/1812 VRB02KT 9999 SCT030 TEMPO 1712/1718 4000 SHRA SCT030CB TEMPO 1800/1806 2500 BCFG
Weather As Of 17 Apr 2024 16:24
Description Broken clouds
Wind 2 km/h from West (250°)
Cloud Cover 75%
Precipitation Rain: none, Snow: none
Sunrise 06:12
Sunset 20:32
NOTAM 24 active NOTAM
Rotations During the last 90 days there were
74 flights from LHR
71 flights from MAN
55 flights from LCY
35 flights from DUS
30 flights from GOT
1 flights from CBG
73 flights to LHR
72 flights to MAN
63 flights to LCY
36 flights to DUS
32 flights to GOT
3 flights to
2 flights to NUE
1 flights to AGB
Lounges King Amlet Lounge , Departures Area
King Amlet, international departures
Web Airport Website | Wikipedia
Codes IATA: BLL
ICAO: EKBI
Altitude 75 Meter / 247 Feet
Distance 758 KM / 471 Miles
from London.
Runways
RunwayLength (m)Surface
093100Asphalt
273100Asphalt
Radio
TypeDescriptionFrequency
APPAPP127.575
ATISATIS118.775
MISCCARGO HANDLING122.075
MISCHANDLING130.85
OPSARPT OFFICE131.5
TWRTWR119
Live ATC



Support Speedbird Online

© 2017-2024 Speedbird Online